createdAt,value
2022-09-22T00:01:19.898Z,3.06
2022-09-22T00:03:49.177Z,2.82
2022-09-22T00:06:19.660Z,3.08
2022-09-22T00:08:51.972Z,3.16
2022-09-22T00:11:28.926Z,2.94
2022-09-22T00:14:01.207Z,2.56
2022-09-22T00:16:33.959Z,2.55
2022-09-22T00:19:00.655Z,2.80
2022-09-22T00:21:28.042Z,2.70
2022-09-22T00:23:54.709Z,2.50
2022-09-22T00:26:24.095Z,2.62
2022-09-22T00:28:52.115Z,2.31
2022-09-22T00:31:24.341Z,2.32
2022-09-22T00:33:52.783Z,2.72
2022-09-22T00:36:21.848Z,2.72
2022-09-22T00:38:51.390Z,2.74
2022-09-22T00:41:22.040Z,2.66
2022-09-22T00:43:51.191Z,2.65
2022-09-22T00:46:23.395Z,2.76
2022-09-22T00:49:03.189Z,2.74
2022-09-22T00:51:34.739Z,2.42
2022-09-22T00:54:06.033Z,2.32
2022-09-22T00:56:50.814Z,2.43
2022-09-22T00:59:21.640Z,2.25
2022-09-22T01:01:48.408Z,2.35
2022-09-22T01:04:17.139Z,1.84
2022-09-22T01:06:44.199Z,2.27
2022-09-22T01:09:11.266Z,2.33
2022-09-22T01:11:39.942Z,2.33
2022-09-22T01:14:37.222Z,2.28
2022-09-22T01:17:03.780Z,2.36
2022-09-22T01:19:55.210Z,2.28
2022-09-22T01:22:46.856Z,2.17
2022-09-22T01:25:16.383Z,2.13
2022-09-22T01:28:20.626Z,2.05
2022-09-22T01:31:03.291Z,2.25
2022-09-22T01:33:52.699Z,2.19
2022-09-22T01:36:51.575Z,2.22
2022-09-22T01:39:29.636Z,2.05
2022-09-22T01:42:11.492Z,2.39
2022-09-22T01:44:53.059Z,2.21
2022-09-22T01:47:36.376Z,2.19
2022-09-22T01:50:24.712Z,1.69
2022-09-22T01:52:53.746Z,1.63
2022-09-22T01:55:32.206Z,1.84
2022-09-22T01:58:04.820Z,1.92
2022-09-22T02:00:32.694Z,2.31
2022-09-22T02:03:17.735Z,2.26
2022-09-22T02:06:02.529Z,2.00
2022-09-22T02:08:44.951Z,1.54
2022-09-22T02:11:18.435Z,1.62
2022-09-22T02:13:46.988Z,1.77
2022-09-22T02:16:16.007Z,1.94
2022-09-22T02:18:53.606Z,1.70
2022-09-22T02:21:21.692Z,1.56
2022-09-22T02:23:49.463Z,1.68
2022-09-22T02:26:23.948Z,1.87
2022-09-22T02:28:53.337Z,1.61
2022-09-22T02:31:23.668Z,1.86
2022-09-22T02:33:52.029Z,1.44
2022-09-22T02:36:24.229Z,1.74
2022-09-22T02:38:59.186Z,1.51
2022-09-22T02:41:40.841Z,1.72
2022-09-22T02:44:19.083Z,1.69
2022-09-22T02:47:07.464Z,1.58
2022-09-22T02:49:35.486Z,1.48
2022-09-22T02:52:02.124Z,1.18
2022-09-22T02:54:28.688Z,1.71
2022-09-22T02:56:55.265Z,1.64
2022-09-22T02:59:21.893Z,1.26
2022-09-22T03:01:48.725Z,1.71
2022-09-22T03:04:15.318Z,1.58
2022-09-22T03:06:41.922Z,1.47
2022-09-22T03:09:08.520Z,1.73
2022-09-22T03:11:35.117Z,1.51
2022-09-22T03:14:01.766Z,1.51
2022-09-22T03:16:28.345Z,0.67
2022-09-22T03:18:55.566Z,0.62
2022-09-22T03:21:22.210Z,0.58
2022-09-22T03:23:49.337Z,0.98
2022-09-22T03:26:15.953Z,1.05
2022-09-22T03:28:43.938Z,1.04
2022-09-22T03:31:11.887Z,0.73
2022-09-22T03:33:39.051Z,1.15
2022-09-22T03:36:06.060Z,1.14
2022-09-22T03:38:33.238Z,1.33
2022-09-22T03:41:01.361Z,1.29
2022-09-22T03:43:28.011Z,1.32
2022-09-22T03:45:58.985Z,1.11
2022-09-22T03:48:27.368Z,1.02
2022-09-22T03:50:54.003Z,1.25
2022-09-22T03:53:20.911Z,0.81
2022-09-22T03:55:48.044Z,1.37
2022-09-22T03:58:15.009Z,0.84
2022-09-22T04:00:41.604Z,1.01
2022-09-22T04:03:08.890Z,0.97
2022-09-22T04:05:35.447Z,1.21
2022-09-22T04:08:02.091Z,1.24
2022-09-22T04:10:28.681Z,1.05
2022-09-22T04:12:55.287Z,0.85
2022-09-22T04:15:21.859Z,1.30
2022-09-22T04:17:48.728Z,1.36
2022-09-22T04:20:16.849Z,1.15
2022-09-22T04:22:43.460Z,1.15
2022-09-22T04:25:10.064Z,1.20
2022-09-22T04:27:36.625Z,1.43
2022-09-22T04:30:05.868Z,1.10
2022-09-22T04:32:32.824Z,1.07
2022-09-22T04:34:59.527Z,1.33
2022-09-22T04:37:26.143Z,1.16
2022-09-22T04:39:54.704Z,1.05
2022-09-22T04:42:21.794Z,1.01
2022-09-22T04:44:48.459Z,0.95
2022-09-22T04:47:15.054Z,0.97
2022-09-22T04:49:41.661Z,1.30
2022-09-22T04:52:08.296Z,1.09
2022-09-22T04:54:34.871Z,0.80
2022-09-22T04:57:01.585Z,0.97
2022-09-22T04:59:29.595Z,0.74
2022-09-22T05:01:56.244Z,0.49
2022-09-22T05:04:23.198Z,0.88
2022-09-22T05:06:50.026Z,0.58
2022-09-22T05:09:16.648Z,0.54
2022-09-22T05:11:44.158Z,0.95
2022-09-22T05:14:10.834Z,0.73
2022-09-22T05:16:37.553Z,0.82
2022-09-22T05:19:04.159Z,0.81
2022-09-22T05:21:30.753Z,1.45
2022-09-22T05:23:57.430Z,1.03
2022-09-22T05:26:24.669Z,1.33
2022-09-22T05:28:51.610Z,1.29
2022-09-22T05:31:18.292Z,1.09
2022-09-22T05:33:44.981Z,1.63
2022-09-22T05:36:11.611Z,1.77
2022-09-22T05:38:38.196Z,1.61
2022-09-22T05:41:04.910Z,1.58
2022-09-22T05:43:31.636Z,1.43
2022-09-22T05:45:58.250Z,1.43
2022-09-22T05:48:30.279Z,1.24
2022-09-22T05:50:57.714Z,1.51
2022-09-22T05:53:24.375Z,1.36
2022-09-22T05:55:50.976Z,1.27
2022-09-22T05:58:17.639Z,1.26
2022-09-22T06:00:44.325Z,1.72
2022-09-22T06:03:11.413Z,1.87
2022-09-22T06:05:39.511Z,2.01
2022-09-22T06:08:06.943Z,1.87
2022-09-22T06:10:35.479Z,1.82
2022-09-22T06:13:04.087Z,1.94
2022-09-22T06:15:33.804Z,1.88
2022-09-22T06:18:01.218Z,1.76
2022-09-22T06:20:28.178Z,1.69
2022-09-22T06:22:56.592Z,1.88
2022-09-22T06:25:23.572Z,1.77
2022-09-22T06:28:07.486Z,1.93
2022-09-22T06:30:35.543Z,1.93
2022-09-22T06:33:02.143Z,2.20
2022-09-22T06:35:37.630Z,2.26
2022-09-22T06:38:06.502Z,2.28
2022-09-22T06:40:36.324Z,2.16
2022-09-22T06:43:07.563Z,2.43
2022-09-22T06:45:34.458Z,2.43
2022-09-22T06:48:02.752Z,2.26
2022-09-22T06:50:33.759Z,2.41
2022-09-22T06:53:02.059Z,2.63
2022-09-22T06:55:30.114Z,2.83
2022-09-22T06:58:01.119Z,2.91
2022-09-22T07:00:31.666Z,2.69
2022-09-22T07:03:08.649Z,2.59
2022-09-22T07:05:37.215Z,2.96
2022-09-22T07:08:04.920Z,3.00
2022-09-22T07:10:38.087Z,2.84
2022-09-22T07:13:06.432Z,3.07
2022-09-22T07:15:35.655Z,3.11
2022-09-22T07:18:04.348Z,3.52
2022-09-22T07:20:33.612Z,3.32
2022-09-22T07:23:01.527Z,3.36
2022-09-22T07:25:29.253Z,3.76
2022-09-22T07:27:57.802Z,3.88
2022-09-22T07:30:26.202Z,4.19
2022-09-22T07:32:52.897Z,4.49
2022-09-22T07:35:19.698Z,4.52
2022-09-22T07:37:46.678Z,4.68
2022-09-22T07:40:14.601Z,4.91
2022-09-22T07:42:41.356Z,4.80
2022-09-22T07:45:12.741Z,4.75
2022-09-22T07:47:58.140Z,5.84
2022-09-22T07:50:24.764Z,6.47
2022-09-22T07:52:54.891Z,6.61
2022-09-22T07:55:24.154Z,6.81
2022-09-22T07:58:00.811Z,6.89
2022-09-22T08:00:32.961Z,7.11
2022-09-22T08:03:01.363Z,7.07
2022-09-22T08:05:28.708Z,6.92
2022-09-22T08:07:58.279Z,7.37
2022-09-22T08:10:26.157Z,7.55
2022-09-22T08:12:54.655Z,7.25
2022-09-22T08:15:26.679Z,7.45
2022-09-22T08:17:58.159Z,7.83
2022-09-22T08:20:29.095Z,7.70
2022-09-22T08:23:03.048Z,8.18
2022-09-22T08:25:30.437Z,8.51
2022-09-22T08:27:57.143Z,8.52
2022-09-22T08:30:23.795Z,8.36
2022-09-22T08:32:50.348Z,8.80
2022-09-22T08:35:17.500Z,8.79
2022-09-22T08:37:45.616Z,8.16
2022-09-22T08:40:25.736Z,8.55
2022-09-22T08:42:54.306Z,8.05
2022-09-22T08:45:30.064Z,8.45
2022-09-22T08:48:52.319Z,8.55
2022-09-22T08:51:43.074Z,8.45
2022-09-22T08:54:09.823Z,8.42
2022-09-22T08:57:00.291Z,8.71
2022-09-22T08:59:38.762Z,8.74
2022-09-22T09:02:36.474Z,9.15
2022-09-22T09:05:21.010Z,9.35
2022-09-22T09:08:00.227Z,9.65
2022-09-22T09:10:42.167Z,9.60
2022-09-22T09:13:11.683Z,9.82
2022-09-22T09:16:04.202Z,9.78
2022-09-22T09:18:34.016Z,10.13
2022-09-22T09:21:04.342Z,9.84
2022-09-22T09:26:41.415Z,10.07
2022-09-22T09:29:18.109Z,10.59
2022-09-22T09:31:53.267Z,10.43
2022-09-22T09:34:23.756Z,10.62
2022-09-22T09:36:55.619Z,11.07
2022-09-22T09:39:32.609Z,11.07
2022-09-22T09:42:02.549Z,11.12
2022-09-22T09:44:40.268Z,10.72
2022-09-22T09:47:34.729Z,11.21
2022-09-22T09:50:01.388Z,10.98
2022-09-22T09:52:28.483Z,11.20
2022-09-22T09:54:55.349Z,11.81
2022-09-22T09:57:27.579Z,11.71
2022-09-22T10:00:32.987Z,12.16
2022-09-22T10:03:26.980Z,12.46
2022-09-22T10:06:04.470Z,12.33
2022-09-22T10:08:36.630Z,12.07
2022-09-22T10:11:04.346Z,12.12
2022-09-22T10:13:34.212Z,11.68
2022-09-22T10:16:24.159Z,11.38
2022-09-22T10:19:12.799Z,11.55
2022-09-22T10:21:39.411Z,11.35
2022-09-22T10:24:27.857Z,11.75
2022-09-22T10:26:55.993Z,11.62
2022-09-22T10:29:22.796Z,11.44
2022-09-22T10:32:08.233Z,11.74
2022-09-22T10:34:51.441Z,11.87
2022-09-22T10:37:25.415Z,11.54
2022-09-22T10:39:54.221Z,12.06
2022-09-22T10:42:43.452Z,12.33
2022-09-22T10:45:13.876Z,12.38
2022-09-22T10:48:03.593Z,12.53
2022-09-22T10:51:14.691Z,12.19
2022-09-22T10:54:22.762Z,12.14
2022-09-22T10:56:53.332Z,12.05
2022-09-22T10:59:51.373Z,12.10
2022-09-22T11:02:18.323Z,12.11
2022-09-22T11:04:52.137Z,11.90
2022-09-22T11:07:54.371Z,11.91
2022-09-22T11:10:56.637Z,12.03
2022-09-22T11:13:40.222Z,12.25
2022-09-22T11:16:37.767Z,12.42
2022-09-22T11:19:26.927Z,12.48
2022-09-22T11:22:12.743Z,12.45
2022-09-22T11:24:48.668Z,12.23
2022-09-22T11:27:28.906Z,12.14
2022-09-22T11:30:01.591Z,12.20
2022-09-22T11:32:44.243Z,12.09
2022-09-22T11:35:17.031Z,12.14
2022-09-22T11:38:11.418Z,12.17
2022-09-22T11:41:19.679Z,13.05
2022-09-22T11:44:05.800Z,12.60
2022-09-22T11:46:46.632Z,12.67
2022-09-22T11:49:31.964Z,12.53
2022-09-22T11:52:17.605Z,12.37
2022-09-22T11:55:23.462Z,12.40
2022-09-22T11:57:56.937Z,12.93
2022-09-22T12:00:23.533Z,13.71
2022-09-22T12:03:54.979Z,14.84
2022-09-22T12:06:26.260Z,14.40
2022-09-22T12:09:03.093Z,15.18
2022-09-22T12:11:35.771Z,14.60
2022-09-22T12:14:04.438Z,14.75
2022-09-22T12:16:31.260Z,15.40
2022-09-22T12:19:19.224Z,16.19
2022-09-22T12:21:52.487Z,15.95
2022-09-22T12:24:19.181Z,15.85
2022-09-22T12:26:50.023Z,16.13
2022-09-22T12:29:16.703Z,17.19
2022-09-22T12:31:48.231Z,17.08
2022-09-22T12:34:32.825Z,16.83
2022-09-22T12:37:32.020Z,17.17
2022-09-22T12:40:13.952Z,17.89
2022-09-22T12:42:45.678Z,18.26
2022-09-22T12:45:42.390Z,19.13
2022-09-22T12:48:16.235Z,16.88
2022-09-22T12:50:44.755Z,17.43
2022-09-22T12:53:14.984Z,18.21
2022-09-22T12:55:41.876Z,17.97
2022-09-22T12:58:20.750Z,18.31
2022-09-22T13:00:49.681Z,16.99
2022-09-22T13:03:25.194Z,15.78
2022-09-22T13:05:54.079Z,14.58
2022-09-22T13:08:33.023Z,14.24
2022-09-22T13:11:07.713Z,13.44
2022-09-22T13:13:47.231Z,13.53
2022-09-22T13:16:13.880Z,13.40
2022-09-22T13:18:58.692Z,13.47
2022-09-22T13:21:33.355Z,13.03
2022-09-22T13:24:02.194Z,12.99
2022-09-22T13:26:30.589Z,13.09
2022-09-22T13:29:20.803Z,13.19
2022-09-22T13:31:52.930Z,13.18
2022-09-22T13:34:36.014Z,13.16
2022-09-22T13:37:09.780Z,12.96
2022-09-22T13:39:49.423Z,12.81
2022-09-22T13:42:32.367Z,13.01
2022-09-22T13:45:00.877Z,12.73
2022-09-22T13:47:28.167Z,12.92
2022-09-22T13:50:01.643Z,13.42
2022-09-22T13:52:31.341Z,13.66
2022-09-22T13:55:07.753Z,13.72
2022-09-22T13:57:37.775Z,13.60
2022-09-22T14:00:06.937Z,13.57
2022-09-22T14:02:34.715Z,13.31
2022-09-22T14:05:06.219Z,12.90
2022-09-22T14:07:41.266Z,12.87
2022-09-22T14:10:25.802Z,13.02
2022-09-22T14:12:52.568Z,13.01
2022-09-22T14:15:37.736Z,13.32
2022-09-22T14:18:17.063Z,13.18
2022-09-22T14:20:45.272Z,12.87
2022-09-22T14:23:20.807Z,12.85
2022-09-22T14:25:47.621Z,12.56
2022-09-22T14:28:22.194Z,13.00
2022-09-22T14:30:50.239Z,12.49
2022-09-22T14:33:25.452Z,12.75
2022-09-22T14:36:00.702Z,12.70
2022-09-22T14:38:32.535Z,12.74
2022-09-22T14:41:00.003Z,12.54
2022-09-22T14:43:37.069Z,12.36
2022-09-22T14:46:33.679Z,12.21
2022-09-22T14:49:40.601Z,12.61
2022-09-22T14:52:26.035Z,12.58
2022-09-22T14:54:56.831Z,12.24
2022-09-22T14:57:31.301Z,12.04
2022-09-22T15:00:18.437Z,11.99
2022-09-22T15:02:53.950Z,12.13
2022-09-22T15:05:32.934Z,12.22
2022-09-22T15:08:03.056Z,12.87
2022-09-22T15:10:35.200Z,13.59
2022-09-22T15:13:41.010Z,14.80
2022-09-22T15:16:45.515Z,15.47
2022-09-22T15:19:13.342Z,16.29
2022-09-22T15:21:46.982Z,16.63
2022-09-22T15:24:16.288Z,17.30
2022-09-22T15:26:44.249Z,16.47
2022-09-22T15:29:17.475Z,15.77
2022-09-22T15:31:44.143Z,15.47
2022-09-22T15:34:14.599Z,15.49
2022-09-22T15:36:46.535Z,15.13
2022-09-22T15:39:33.335Z,15.22
2022-09-22T15:42:00.206Z,14.87
2022-09-22T15:44:27.374Z,14.43
2022-09-22T15:46:58.024Z,14.35
2022-09-22T15:49:29.084Z,14.22
2022-09-22T15:51:59.791Z,13.74
2022-09-22T15:54:26.945Z,13.43
2022-09-22T15:56:55.728Z,14.09
2022-09-22T15:59:32.991Z,13.81
2022-09-22T16:02:02.760Z,13.51
2022-09-22T16:04:33.847Z,13.71
2022-09-22T16:07:04.698Z,13.90
2022-09-22T16:09:31.376Z,14.07
2022-09-22T16:12:01.054Z,13.79
2022-09-22T16:14:27.828Z,13.32
2022-09-22T16:16:56.984Z,13.55
2022-09-22T16:19:23.878Z,13.29
2022-09-22T16:21:54.370Z,13.00
2022-09-22T16:24:22.433Z,13.15
2022-09-22T16:26:50.184Z,13.37
2022-09-22T16:29:16.847Z,13.25
2022-09-22T16:31:48.477Z,13.11
2022-09-22T16:34:20.149Z,13.21
2022-09-22T16:36:46.790Z,13.02
2022-09-22T16:39:13.582Z,12.92
2022-09-22T16:41:48.806Z,13.02
2022-09-22T16:44:49.464Z,12.16
2022-09-22T16:47:24.095Z,12.37
2022-09-22T16:49:56.977Z,12.10
2022-09-22T16:52:27.711Z,11.97
2022-09-22T16:54:54.526Z,11.84
2022-09-22T16:57:55.893Z,10.86
2022-09-22T17:00:22.574Z,11.41
2022-09-22T17:02:54.468Z,10.91
2022-09-22T17:05:24.508Z,10.54
2022-09-22T17:07:52.466Z,11.27
2022-09-22T17:10:20.026Z,11.00
2022-09-22T17:12:46.648Z,10.98
2022-09-22T17:15:13.985Z,10.91
2022-09-22T17:17:41.199Z,10.84
2022-09-22T17:20:10.935Z,10.48
2022-09-22T17:22:37.828Z,10.12
2022-09-22T17:25:05.362Z,9.93
2022-09-22T17:27:32.087Z,10.04
2022-09-22T17:30:01.317Z,10.10
2022-09-22T17:32:29.997Z,10.09
2022-09-22T17:34:57.835Z,9.72
2022-09-22T17:37:24.564Z,10.03
2022-09-22T17:39:51.205Z,9.86
2022-09-22T17:42:18.197Z,9.62
2022-09-22T17:44:44.810Z,9.60
2022-09-22T17:47:29.919Z,9.48
2022-09-22T17:50:15.246Z,8.91
2022-09-22T17:53:00.072Z,9.01
2022-09-22T17:55:27.025Z,9.03
2022-09-22T17:57:56.233Z,9.06
2022-09-22T18:00:24.207Z,9.05
2022-09-22T18:02:55.609Z,9.26
2022-09-22T18:05:29.846Z,9.16
2022-09-22T18:07:59.386Z,8.96
2022-09-22T18:10:34.160Z,8.79
2022-09-22T18:13:02.041Z,8.48
2022-09-22T18:15:29.265Z,8.10
2022-09-22T18:17:58.134Z,8.12
2022-09-22T18:20:26.213Z,8.23
2022-09-22T18:22:53.557Z,7.99
2022-09-22T18:25:23.152Z,7.97
2022-09-22T18:27:49.947Z,8.09
2022-09-22T18:30:18.420Z,8.00
2022-09-22T18:32:45.527Z,7.84
2022-09-22T18:35:12.917Z,8.02
2022-09-22T18:37:39.976Z,7.74
2022-09-22T18:40:07.449Z,7.73
2022-09-22T18:42:36.590Z,8.10
2022-09-22T18:45:04.087Z,8.06
2022-09-22T18:47:30.840Z,7.99
2022-09-22T18:49:58.684Z,8.24
2022-09-22T18:52:25.622Z,7.95
2022-09-22T18:54:54.265Z,7.88
2022-09-22T18:57:22.545Z,7.66
2022-09-22T18:59:51.011Z,7.54
2022-09-22T19:02:21.416Z,7.18
2022-09-22T19:04:49.125Z,7.24
2022-09-22T19:07:41.639Z,6.96
2022-09-22T19:10:14.809Z,7.31
2022-09-22T19:12:42.685Z,7.29
2022-09-22T19:15:16.473Z,7.22
2022-09-22T19:17:45.029Z,7.16
2022-09-22T19:20:35.663Z,7.18
2022-09-22T19:23:02.863Z,7.16
2022-09-22T19:25:29.831Z,6.98
2022-09-22T19:27:56.456Z,6.82
2022-09-22T19:30:25.785Z,6.88
2022-09-22T19:32:55.192Z,6.68
2022-09-22T19:35:22.089Z,6.69
2022-09-22T19:37:51.647Z,6.72
2022-09-22T19:40:20.190Z,6.74
2022-09-22T19:42:47.765Z,6.97
2022-09-22T19:45:14.660Z,6.42
2022-09-22T19:47:41.670Z,6.80
2022-09-22T19:50:09.040Z,6.47
2022-09-22T19:52:37.773Z,6.50
2022-09-22T19:55:11.494Z,6.18
2022-09-22T19:57:41.217Z,6.12
2022-09-22T20:00:17.414Z,6.34
2022-09-22T20:02:45.021Z,5.95
2022-09-22T20:05:22.088Z,6.03
2022-09-22T20:07:49.014Z,5.59
2022-09-22T20:10:17.271Z,6.04
2022-09-22T20:12:44.095Z,6.10
2022-09-22T20:15:15.133Z,6.37
2022-09-22T20:17:46.231Z,5.86
2022-09-22T20:20:17.975Z,5.73
2022-09-22T20:22:46.417Z,5.89
2022-09-22T20:25:23.441Z,6.06
2022-09-22T20:27:50.427Z,5.96
2022-09-22T20:30:17.957Z,5.91
2022-09-22T20:32:45.422Z,5.85
2022-09-22T20:35:14.287Z,5.90
2022-09-22T20:37:42.341Z,5.63
2022-09-22T20:40:21.317Z,5.55
2022-09-22T20:42:51.134Z,5.59
2022-09-22T20:45:20.965Z,5.38
2022-09-22T20:47:48.113Z,5.41
2022-09-22T20:50:15.175Z,5.65
2022-09-22T20:52:42.937Z,5.68
2022-09-22T20:55:10.854Z,5.71
2022-09-22T20:57:39.019Z,5.78
2022-09-22T21:00:06.904Z,5.39
2022-09-22T21:02:33.736Z,5.42
2022-09-22T21:05:00.475Z,5.38
2022-09-22T21:07:27.084Z,5.07
2022-09-22T21:10:12.413Z,5.29
2022-09-22T21:12:39.790Z,4.81
2022-09-22T21:15:06.712Z,4.59
2022-09-22T21:17:35.156Z,4.55
2022-09-22T21:20:02.141Z,4.84
2022-09-22T21:22:28.876Z,4.78
2022-09-22T21:24:56.464Z,4.97
2022-09-22T21:27:24.794Z,4.71
2022-09-22T21:29:51.438Z,4.47
2022-09-22T21:32:19.921Z,4.39
2022-09-22T21:34:46.600Z,3.52
2022-09-22T21:37:14.464Z,4.03
2022-09-22T21:39:41.258Z,4.55
2022-09-22T21:42:07.877Z,4.36
2022-09-22T21:44:34.565Z,4.64
2022-09-22T21:47:01.222Z,4.44
2022-09-22T21:49:28.307Z,4.36
2022-09-22T21:51:54.898Z,4.29
2022-09-22T21:54:21.570Z,4.34
2022-09-22T21:56:50.459Z,4.31
2022-09-22T21:59:17.407Z,4.22
2022-09-22T22:01:45.157Z,4.04
2022-09-22T22:04:15.210Z,4.11
2022-09-22T22:06:43.525Z,4.05
2022-09-22T22:09:18.266Z,4.12
2022-09-22T22:11:50.455Z,4.25
2022-09-22T22:14:22.562Z,4.26
2022-09-22T22:16:54.268Z,4.23
2022-09-22T22:19:22.455Z,4.20
2022-09-22T22:21:50.955Z,4.16
2022-09-22T22:24:25.133Z,4.26
2022-09-22T22:26:57.547Z,4.29
2022-09-22T22:29:26.385Z,4.22
2022-09-22T22:31:53.527Z,4.21
2022-09-22T22:34:22.856Z,3.64
2022-09-22T22:36:49.644Z,4.02
2022-09-22T22:39:16.546Z,3.92
2022-09-22T22:41:43.450Z,3.69
2022-09-22T22:44:12.274Z,3.71
2022-09-22T22:46:38.922Z,3.87
2022-09-22T22:49:07.643Z,3.73
2022-09-22T22:51:37.311Z,3.56
2022-09-22T22:54:04.979Z,3.56
2022-09-22T22:56:32.270Z,3.65
2022-09-22T22:58:59.286Z,3.46
2022-09-22T23:01:29.078Z,3.50
2022-09-22T23:04:01.123Z,3.47
2022-09-22T23:06:32.216Z,3.46
2022-09-22T23:08:58.887Z,3.22
2022-09-22T23:11:30.732Z,3.54
2022-09-22T23:14:03.099Z,3.60
2022-09-22T23:16:32.927Z,3.70
2022-09-22T23:19:01.817Z,3.62
2022-09-22T23:21:30.380Z,3.49
2022-09-22T23:23:57.722Z,3.47
2022-09-22T23:26:24.298Z,3.29
2022-09-22T23:28:52.150Z,3.46
2022-09-22T23:31:21.519Z,2.74
2022-09-22T23:33:50.325Z,2.79
2022-09-22T23:36:18.349Z,3.11
2022-09-22T23:38:45.144Z,3.34
2022-09-22T23:41:12.044Z,2.99
2022-09-22T23:43:38.945Z,3.18
2022-09-22T23:46:07.553Z,3.29
2022-09-22T23:48:35.329Z,3.30
2022-09-22T23:51:03.154Z,3.36
2022-09-22T23:53:32.598Z,3.25
2022-09-22T23:55:59.622Z,2.88
2022-09-22T23:58:26.309Z,2.88
